createdAt,value
2018-01-17T00:00:21.368Z,93.91
2018-01-17T00:02:48.776Z,93.86
2018-01-17T00:05:16.190Z,93.94
2018-01-17T00:07:43.592Z,94.18
2018-01-17T00:10:11.017Z,94.24
2018-01-17T00:12:38.421Z,94.13
2018-01-17T00:15:05.841Z,93.97
2018-01-17T00:17:33.254Z,93.98
2018-01-17T00:20:00.674Z,94.11
2018-01-17T00:22:40.128Z,93.85
2018-01-17T00:25:07.541Z,93.55
2018-01-17T00:27:34.965Z,93.06
2018-01-17T00:30:02.395Z,92.97
2018-01-17T00:32:29.813Z,93.24
2018-01-17T00:34:57.253Z,92.78
2018-01-17T00:37:24.662Z,92.84
2018-01-17T00:39:52.080Z,92.70
2018-01-17T00:42:19.498Z,92.43
2018-01-17T00:44:46.920Z,91.87
2018-01-17T00:47:14.345Z,91.38
2018-01-17T00:49:41.773Z,91.33
2018-01-17T00:52:09.192Z,91.29
2018-01-17T00:54:36.636Z,91.41
2018-01-17T00:57:04.061Z,91.61
2018-01-17T00:59:31.494Z,91.35
2018-01-17T01:01:58.909Z,91.55
2018-01-17T01:04:26.325Z,90.67
2018-01-17T01:06:53.748Z,91.09
2018-01-17T01:09:21.165Z,90.73
2018-01-17T01:11:48.593Z,90.73
2018-01-17T01:14:16.009Z,90.38
2018-01-17T01:16:43.423Z,90.63
2018-01-17T01:19:10.846Z,89.84
2018-01-17T01:21:38.261Z,90.35
2018-01-17T01:24:05.693Z,91.02
2018-01-17T01:26:33.108Z,89.53
2018-01-17T01:29:00.533Z,90.10
2018-01-17T01:31:27.957Z,90.35
2018-01-17T01:33:55.393Z,90.07
2018-01-17T01:36:22.816Z,89.12
2018-01-17T01:38:50.228Z,90.13
2018-01-17T01:41:17.644Z,89.30
2018-01-17T01:43:45.085Z,89.83
2018-01-17T01:46:12.505Z,89.32
2018-01-17T01:48:51.728Z,89.76
2018-01-17T01:51:19.146Z,89.84
2018-01-17T01:53:46.561Z,89.25
2018-01-17T01:56:13.993Z,89.58
2018-01-17T01:58:41.401Z,89.33
2018-01-17T02:01:08.843Z,89.14
2018-01-17T02:03:36.249Z,90.11
2018-01-17T02:06:03.664Z,89.39
2018-01-17T02:08:31.076Z,89.98
2018-01-17T02:10:58.486Z,89.74
2018-01-17T02:13:25.908Z,89.36
2018-01-17T02:15:53.325Z,89.40
2018-01-17T02:18:20.748Z,88.06
2018-01-17T02:20:48.173Z,89.03
2018-01-17T02:23:15.592Z,88.62
2018-01-17T02:25:43.016Z,88.33
2018-01-17T02:28:10.437Z,88.24
2018-01-17T02:30:37.850Z,87.42
2018-01-17T02:33:05.282Z,87.28
2018-01-17T02:35:32.691Z,87.44
2018-01-17T02:38:00.104Z,86.72
2018-01-17T02:40:39.244Z,86.92
2018-01-17T02:43:06.654Z,85.50
2018-01-17T02:45:34.080Z,86.09
2018-01-17T02:48:01.501Z,85.34
2018-01-17T02:50:28.908Z,84.85
2018-01-17T02:52:56.360Z,85.77
2018-01-17T02:55:23.769Z,85.70
2018-01-17T02:57:51.169Z,85.77
2018-01-17T03:00:19.096Z,84.76
2018-01-17T03:02:46.505Z,85.06
2018-01-17T03:05:13.916Z,85.34
2018-01-17T03:07:41.352Z,85.51
2018-01-17T03:10:08.761Z,85.25
2018-01-17T03:12:36.173Z,84.70
2018-01-17T03:15:03.940Z,85.70
2018-01-17T03:17:31.363Z,85.61
2018-01-17T03:19:58.773Z,86.04
2018-01-17T03:22:26.769Z,85.68
2018-01-17T03:24:54.183Z,84.65
2018-01-17T03:27:21.600Z,84.26
2018-01-17T03:29:49.025Z,84.88
2018-01-17T03:32:16.444Z,85.90
2018-01-17T03:34:43.869Z,85.06
2018-01-17T03:37:11.284Z,85.36
2018-01-17T03:39:38.705Z,85.00
2018-01-17T03:42:06.145Z,84.27
2018-01-17T03:44:33.934Z,84.83
2018-01-17T03:47:01.354Z,84.60
2018-01-17T03:49:28.772Z,84.96
2018-01-17T03:51:56.514Z,84.53
2018-01-17T03:54:23.938Z,84.02
2018-01-17T03:56:51.350Z,82.72
2018-01-17T03:59:18.774Z,83.56
2018-01-17T04:01:46.189Z,83.80
2018-01-17T04:04:13.594Z,82.59
2018-01-17T04:06:41.029Z,81.42
2018-01-17T04:09:08.434Z,81.39
2018-01-17T04:11:35.845Z,81.87
2018-01-17T04:14:03.285Z,81.78
2018-01-17T04:16:30.705Z,81.72
2018-01-17T04:18:58.132Z,81.86
2018-01-17T04:21:25.584Z,83.21
2018-01-17T04:23:52.988Z,87.41
2018-01-17T04:26:20.396Z,89.84
2018-01-17T04:28:47.832Z,90.33
2018-01-17T04:31:15.245Z,91.56
2018-01-17T04:33:42.663Z,92.70
2018-01-17T04:36:10.082Z,93.44
2018-01-17T04:38:37.509Z,94.49
2018-01-17T04:41:04.916Z,95.15
2018-01-17T04:43:32.638Z,95.63
2018-01-17T04:46:00.048Z,96.21
2018-01-17T04:48:27.453Z,96.07
2018-01-17T04:50:54.877Z,95.75
2018-01-17T04:53:22.289Z,95.76
2018-01-17T04:55:49.696Z,95.66
2018-01-17T04:58:17.108Z,95.69
2018-01-17T05:00:44.530Z,95.77
2018-01-17T05:03:11.937Z,96.71
2018-01-17T05:05:39.360Z,97.05
2018-01-17T05:08:06.768Z,97.58
2018-01-17T05:10:34.181Z,97.78
2018-01-17T05:13:01.601Z,98.23
2018-01-17T05:15:29.021Z,98.23
2018-01-17T05:17:56.428Z,98.37
2018-01-17T05:20:24.257Z,98.27
2018-01-17T05:22:51.665Z,98.27
2018-01-17T05:25:19.078Z,98.21
2018-01-17T05:27:46.494Z,98.20
2018-01-17T05:30:13.903Z,98.30
2018-01-17T05:32:41.308Z,98.43
2018-01-17T05:35:08.732Z,98.59
2018-01-17T05:37:36.141Z,98.31
2018-01-17T05:40:03.548Z,98.07
2018-01-17T05:42:30.972Z,98.06
2018-01-17T05:44:58.380Z,97.70
2018-01-17T05:47:25.789Z,97.43
2018-01-17T05:49:53.209Z,97.54
2018-01-17T05:52:20.643Z,97.38
2018-01-17T05:54:48.062Z,97.35
2018-01-17T05:57:15.477Z,97.26
2018-01-17T05:59:42.891Z,97.15
2018-01-17T06:02:10.297Z,96.97
2018-01-17T06:04:37.736Z,96.70
2018-01-17T06:07:05.142Z,96.25
2018-01-17T06:09:32.549Z,95.26
2018-01-17T06:11:59.969Z,94.63
2018-01-17T06:14:27.378Z,94.58
2018-01-17T06:16:54.785Z,93.62
2018-01-17T06:19:22.207Z,92.86
2018-01-17T06:21:49.622Z,93.42
2018-01-17T06:24:17.033Z,93.38
2018-01-17T06:26:44.459Z,93.83
2018-01-17T06:29:11.869Z,93.30
2018-01-17T06:31:39.280Z,93.06
2018-01-17T06:34:06.789Z,93.02
2018-01-17T06:36:34.206Z,92.88
2018-01-17T06:39:01.612Z,92.96
2018-01-17T06:41:29.042Z,92.66
2018-01-17T06:43:56.453Z,92.97
2018-01-17T06:46:23.872Z,93.17
2018-01-17T06:48:51.573Z,93.12
2018-01-17T06:51:18.988Z,93.32
2018-01-17T06:53:46.397Z,93.60
2018-01-17T06:56:13.834Z,93.70
2018-01-17T06:58:41.240Z,94.01
2018-01-17T07:01:08.657Z,94.57
2018-01-17T07:03:36.086Z,94.56
2018-01-17T07:06:03.516Z,94.53
2018-01-17T07:08:30.925Z,94.91
2018-01-17T07:10:58.789Z,94.70
2018-01-17T07:13:26.211Z,95.03
2018-01-17T07:15:53.620Z,95.17
2018-01-17T07:18:21.042Z,95.24
2018-01-17T07:20:48.459Z,95.32
2018-01-17T07:23:15.870Z,95.20
2018-01-17T07:25:43.634Z,95.13
2018-01-17T07:28:11.038Z,94.76
2018-01-17T07:30:38.448Z,94.85
2018-01-17T07:33:05.868Z,94.23
2018-01-17T07:35:33.287Z,94.32
2018-01-17T07:38:00.692Z,94.05
2018-01-17T07:40:28.110Z,94.01
2018-01-17T07:42:55.531Z,93.92
2018-01-17T07:45:22.937Z,93.57
2018-01-17T07:47:50.353Z,93.64
2018-01-17T07:50:17.761Z,94.82
2018-01-17T07:52:45.165Z,95.52
2018-01-17T07:55:12.588Z,95.64
2018-01-17T07:57:39.997Z,95.73
2018-01-17T08:00:07.409Z,95.61
2018-01-17T08:02:34.833Z,95.68
2018-01-17T08:05:02.271Z,95.74
2018-01-17T08:07:29.656Z,95.76
2018-01-17T08:09:57.085Z,95.50
2018-01-17T08:12:24.493Z,95.87
2018-01-17T08:14:51.900Z,96.18
2018-01-17T08:17:19.332Z,96.28
2018-01-17T08:19:46.741Z,95.94
2018-01-17T08:22:14.164Z,95.84
2018-01-17T08:24:41.636Z,95.58
2018-01-17T08:27:09.022Z,95.25
2018-01-17T08:29:36.434Z,95.31
2018-01-17T08:32:03.902Z,95.51
2018-01-17T08:34:31.465Z,95.04
2018-01-17T08:36:58.968Z,94.69
2018-01-17T08:39:26.392Z,94.93
2018-01-17T08:41:53.830Z,94.34
2018-01-17T08:44:21.868Z,94.39
2018-01-17T08:46:49.293Z,94.73
2018-01-17T08:49:16.849Z,94.16
2018-01-17T08:51:44.273Z,93.65
2018-01-17T08:54:11.693Z,92.90
2018-01-17T08:56:39.113Z,92.78
2018-01-17T08:59:06.525Z,92.57
2018-01-17T09:01:33.957Z,93.26
2018-01-17T09:04:01.369Z,92.24
2018-01-17T09:06:28.785Z,92.48
2018-01-17T09:08:56.223Z,92.36
2018-01-17T09:11:23.632Z,92.44
2018-01-17T09:13:51.033Z,92.36
2018-01-17T09:16:18.467Z,92.44
2018-01-17T09:18:45.899Z,92.51
2018-01-17T09:21:13.308Z,92.54
2018-01-17T09:23:40.725Z,92.49
2018-01-17T09:26:08.134Z,92.50
2018-01-17T09:28:35.547Z,92.72
2018-01-17T09:31:03.294Z,92.13
2018-01-17T09:33:30.700Z,92.08
2018-01-17T09:35:58.109Z,91.13
2018-01-17T09:38:25.529Z,91.09
2018-01-17T09:40:52.940Z,91.55
2018-01-17T09:43:20.391Z,90.63
2018-01-17T09:45:47.772Z,91.22
2018-01-17T09:48:15.185Z,91.42
2018-01-17T09:50:42.596Z,90.85
2018-01-17T09:53:10.021Z,92.11
2018-01-17T09:55:37.470Z,92.53
2018-01-17T09:58:04.845Z,92.64
2018-01-17T10:00:32.266Z,93.90
2018-01-17T10:02:59.673Z,95.11
2018-01-17T10:05:27.085Z,94.86
2018-01-17T10:07:54.865Z,94.67
2018-01-17T10:10:22.277Z,95.37
2018-01-17T10:12:49.689Z,94.95
2018-01-17T10:15:17.412Z,94.82
2018-01-17T10:17:44.870Z,94.21
2018-01-17T10:20:12.277Z,94.79
2018-01-17T10:22:39.717Z,94.98
2018-01-17T10:25:07.148Z,95.22
2018-01-17T10:27:34.587Z,94.86
2018-01-17T10:30:02.445Z,94.95
2018-01-17T10:32:29.873Z,95.27
2018-01-17T10:34:57.315Z,94.73
2018-01-17T10:37:24.736Z,94.62
2018-01-17T10:39:52.156Z,94.10
2018-01-17T10:42:19.565Z,94.03
2018-01-17T10:44:47.077Z,94.88
2018-01-17T10:47:14.508Z,94.59
2018-01-17T10:49:41.900Z,94.20
2018-01-17T10:52:09.337Z,94.20
2018-01-17T10:54:36.776Z,93.95
2018-01-17T10:57:04.196Z,93.64
2018-01-17T10:59:31.627Z,93.91
2018-01-17T11:01:59.057Z,93.71
2018-01-17T11:04:26.465Z,92.93
2018-01-17T11:06:53.885Z,93.25
2018-01-17T11:09:21.341Z,92.80
2018-01-17T11:11:48.753Z,92.92
2018-01-17T11:14:16.160Z,93.13
2018-01-17T11:16:43.572Z,93.44
2018-01-17T11:19:11.005Z,93.26
2018-01-17T11:21:38.468Z,92.91
2018-01-17T11:24:05.872Z,92.96
2018-01-17T11:26:33.344Z,92.38
2018-01-17T11:29:00.824Z,92.89
2018-01-17T11:31:28.221Z,92.78
2018-01-17T11:33:55.640Z,92.93
2018-01-17T11:36:23.065Z,92.88
2018-01-17T11:38:50.476Z,93.08
2018-01-17T11:41:17.881Z,93.52
2018-01-17T11:43:45.300Z,92.94
2018-01-17T11:46:12.717Z,93.50
2018-01-17T11:48:40.129Z,93.83
2018-01-17T11:51:07.560Z,93.20
2018-01-17T11:53:34.978Z,92.55
2018-01-17T11:56:02.389Z,92.60
2018-01-17T11:58:29.809Z,92.94
2018-01-17T12:00:57.228Z,92.83
2018-01-17T12:03:24.640Z,92.32
2018-01-17T12:05:52.059Z,92.02
2018-01-17T12:08:19.477Z,91.58
2018-01-17T12:10:46.889Z,91.63
2018-01-17T12:13:14.319Z,91.65
2018-01-17T12:15:41.734Z,90.77
2018-01-17T12:18:09.153Z,91.50
2018-01-17T12:20:36.880Z,92.33
2018-01-17T12:23:04.285Z,92.28
2018-01-17T12:25:31.700Z,92.33
2018-01-17T12:27:59.120Z,91.05
2018-01-17T12:30:27.409Z,91.39
2018-01-17T12:32:54.825Z,91.44
2018-01-17T12:35:22.614Z,90.75
2018-01-17T12:37:50.021Z,91.30
2018-01-17T12:40:17.432Z,91.21
2018-01-17T12:42:44.861Z,91.37
2018-01-17T12:45:12.276Z,91.20
2018-01-17T12:47:39.689Z,90.60
2018-01-17T12:50:07.131Z,90.62
2018-01-17T12:52:34.545Z,91.46
2018-01-17T12:55:01.970Z,90.83
2018-01-17T12:57:29.398Z,89.54
2018-01-17T12:59:56.809Z,88.57
2018-01-17T13:02:24.221Z,88.22
2018-01-17T13:04:51.652Z,88.50
2018-01-17T13:07:19.073Z,88.76
2018-01-17T13:09:46.484Z,88.29
2018-01-17T13:12:13.952Z,88.73
2018-01-17T13:14:41.351Z,88.19
2018-01-17T13:17:08.761Z,89.01
2018-01-17T13:19:36.189Z,87.86
2018-01-17T13:22:03.601Z,86.43
2018-01-17T13:24:31.066Z,85.95
2018-01-17T13:26:58.457Z,85.80
2018-01-17T13:29:25.866Z,85.26
2018-01-17T13:31:53.277Z,84.30
2018-01-17T13:34:20.720Z,84.84
2018-01-17T13:36:48.115Z,83.70
2018-01-17T13:39:15.575Z,84.01
2018-01-17T13:41:42.988Z,85.46
2018-01-17T13:44:10.438Z,86.14
2018-01-17T13:46:37.877Z,85.03
2018-01-17T13:49:05.697Z,86.37
2018-01-17T13:51:33.109Z,86.83
2018-01-17T13:54:00.541Z,88.22
2018-01-17T13:56:27.965Z,89.06
2018-01-17T13:58:55.381Z,89.25
2018-01-17T14:01:22.802Z,90.85
2018-01-17T14:03:50.231Z,91.20
2018-01-17T14:06:17.640Z,91.54
2018-01-17T14:08:45.077Z,92.06
2018-01-17T14:11:12.798Z,91.41
2018-01-17T14:13:40.275Z,91.47
2018-01-17T14:16:07.676Z,92.17
2018-01-17T14:18:35.177Z,91.53
2018-01-17T14:21:02.594Z,91.98
2018-01-17T14:23:30.082Z,90.99
2018-01-17T14:25:57.481Z,90.12
2018-01-17T14:28:24.897Z,90.64
2018-01-17T14:30:52.345Z,88.32
2018-01-17T14:33:19.788Z,87.81
2018-01-17T14:35:47.254Z,89.38
2018-01-17T14:38:14.674Z,90.03
2018-01-17T14:40:42.498Z,92.77
2018-01-17T14:43:15.832Z,93.40
2018-01-17T14:45:43.255Z,94.56
2018-01-17T14:48:10.667Z,94.53
2018-01-17T14:50:38.077Z,95.08
2018-01-17T14:53:05.520Z,95.87
2018-01-17T14:55:32.926Z,96.21
2018-01-17T14:58:00.337Z,96.52
2018-01-17T15:00:28.092Z,96.47
2018-01-17T15:02:55.504Z,96.38
2018-01-17T15:05:22.916Z,95.88
2018-01-17T15:07:50.609Z,95.98
2018-01-17T15:10:18.021Z,95.92
2018-01-17T15:12:45.437Z,95.66
2018-01-17T15:15:12.865Z,95.14
2018-01-17T15:17:40.277Z,95.25
2018-01-17T15:20:07.685Z,95.23
2018-01-17T15:22:35.105Z,95.08
2018-01-17T15:25:02.525Z,93.92
2018-01-17T15:27:29.952Z,93.59
2018-01-17T15:29:57.382Z,93.54
2018-01-17T15:32:24.798Z,93.26
2018-01-17T15:34:52.216Z,92.70
2018-01-17T15:37:19.633Z,92.45
2018-01-17T15:39:47.050Z,93.31
2018-01-17T15:42:14.484Z,92.15
2018-01-17T15:44:42.321Z,93.35
2018-01-17T15:47:09.732Z,93.57
2018-01-17T15:49:37.181Z,93.61
2018-01-17T15:52:05.097Z,93.95
2018-01-17T15:54:32.509Z,93.51
2018-01-17T15:56:59.977Z,92.37
2018-01-17T15:59:27.400Z,93.32
2018-01-17T16:01:54.854Z,92.71
2018-01-17T16:04:22.266Z,92.17
2018-01-17T16:06:50.149Z,92.45
2018-01-17T16:09:17.549Z,92.40
2018-01-17T16:11:44.965Z,92.15
2018-01-17T16:14:12.393Z,91.81
2018-01-17T16:16:39.804Z,91.54
2018-01-17T16:19:07.226Z,91.03
2018-01-17T16:21:34.644Z,90.88
2018-01-17T16:24:02.056Z,90.22
2018-01-17T16:26:29.487Z,91.06
2018-01-17T16:28:56.913Z,90.36
2018-01-17T16:31:24.338Z,90.30
2018-01-17T16:33:51.747Z,89.98
2018-01-17T16:36:19.165Z,90.09
2018-01-17T16:38:46.586Z,90.00
2018-01-17T16:41:14.101Z,88.77
2018-01-17T16:43:41.526Z,89.75
2018-01-17T16:46:09.025Z,89.17
2018-01-17T16:48:36.430Z,89.18
2018-01-17T16:51:03.853Z,89.52
2018-01-17T16:53:31.273Z,88.89
2018-01-17T16:55:58.689Z,88.48
2018-01-17T16:58:26.127Z,88.87
2018-01-17T17:00:53.574Z,89.44
2018-01-17T17:03:20.949Z,88.77
2018-01-17T17:05:48.377Z,89.40
2018-01-17T17:08:15.788Z,89.31
2018-01-17T17:10:43.213Z,88.79
2018-01-17T17:13:10.646Z,88.34
2018-01-17T17:15:38.058Z,88.65
2018-01-17T17:18:05.472Z,88.74
2018-01-17T17:20:32.913Z,88.49
2018-01-17T17:23:00.333Z,88.21
2018-01-17T17:25:27.736Z,88.31
2018-01-17T17:27:55.161Z,88.98
2018-01-17T17:30:22.577Z,88.20
2018-01-17T17:32:49.993Z,88.52
2018-01-17T17:35:17.431Z,87.49
2018-01-17T17:37:44.836Z,87.20
2018-01-17T17:40:12.249Z,88.15
2018-01-17T17:42:39.977Z,88.37
2018-01-17T17:45:07.392Z,87.49
2018-01-17T17:47:34.810Z,87.53
2018-01-17T17:50:02.242Z,87.30
2018-01-17T17:52:29.657Z,87.65
2018-01-17T17:54:57.085Z,86.71
2018-01-17T17:57:24.510Z,87.30
2018-01-17T17:59:51.921Z,86.79
2018-01-17T18:02:19.337Z,86.85
2018-01-17T18:04:46.757Z,86.14
2018-01-17T18:07:14.179Z,85.49
2018-01-17T18:09:41.586Z,86.24
2018-01-17T18:12:09.016Z,86.95
2018-01-17T18:14:36.429Z,86.06
2018-01-17T18:17:03.845Z,86.37
2018-01-17T18:19:31.269Z,85.44
2018-01-17T18:21:58.685Z,85.25
2018-01-17T18:24:26.100Z,85.81
2018-01-17T18:26:53.528Z,84.44
2018-01-17T18:29:20.949Z,83.68
2018-01-17T18:31:48.364Z,84.52
2018-01-17T18:34:15.780Z,83.31
2018-01-17T18:36:43.185Z,84.38
2018-01-17T18:39:10.595Z,83.86
2018-01-17T18:41:38.005Z,84.09
2018-01-17T18:44:05.417Z,83.85
2018-01-17T18:46:32.821Z,83.50
2018-01-17T18:49:00.578Z,83.27
2018-01-17T18:51:27.999Z,82.56
2018-01-17T18:53:55.417Z,82.76
2018-01-17T18:56:23.137Z,82.54
2018-01-17T18:58:50.536Z,83.56
2018-01-17T19:01:17.948Z,81.80
2018-01-17T19:03:45.377Z,82.95
2018-01-17T19:06:12.804Z,81.94
2018-01-17T19:08:40.212Z,81.18
2018-01-17T19:11:07.641Z,82.08
2018-01-17T19:13:35.054Z,82.66
2018-01-17T19:16:02.458Z,82.66
2018-01-17T19:18:29.892Z,82.62
2018-01-17T19:20:57.297Z,82.28
2018-01-17T19:23:24.729Z,82.17
2018-01-17T19:25:52.149Z,82.04
2018-01-17T19:28:19.564Z,81.60
2018-01-17T19:30:46.989Z,81.18
2018-01-17T19:33:14.721Z,79.98
2018-01-17T19:35:42.132Z,80.72
2018-01-17T19:38:09.549Z,79.56
2018-01-17T19:40:37.254Z,80.59
2018-01-17T19:43:04.660Z,80.37
2018-01-17T19:45:35.853Z,78.96
2018-01-17T19:48:03.313Z,79.85
2018-01-17T19:50:30.812Z,80.06
2018-01-17T19:52:58.213Z,79.54
2018-01-17T19:55:26.040Z,79.08
2018-01-17T19:57:53.448Z,79.12
2018-01-17T20:00:20.853Z,79.55
2018-01-17T20:02:48.598Z,79.47
2018-01-17T20:05:16.942Z,78.84
2018-01-17T20:07:45.213Z,79.85
2018-01-17T20:10:13.021Z,79.77
2018-01-17T20:12:46.779Z,79.35
2018-01-17T20:15:14.208Z,78.59
2018-01-17T20:17:41.617Z,79.24
2018-01-17T20:20:09.028Z,79.43
2018-01-17T20:22:42.129Z,79.48
2018-01-17T20:25:09.538Z,79.38
2018-01-17T20:27:37.000Z,79.43
2018-01-17T20:30:04.385Z,79.38
2018-01-17T20:32:31.801Z,79.93
2018-01-17T20:34:59.237Z,79.12
2018-01-17T20:37:26.684Z,78.73
2018-01-17T20:39:54.101Z,79.47
2018-01-17T20:42:21.529Z,78.37
2018-01-17T20:44:49.297Z,78.13
2018-01-17T20:47:16.751Z,78.79
2018-01-17T20:49:44.160Z,78.38
2018-01-17T20:52:11.606Z,77.14
2018-01-17T20:54:39.015Z,77.13
2018-01-17T20:57:06.433Z,77.92
2018-01-17T20:59:33.986Z,78.34
2018-01-17T21:02:01.327Z,77.34
2018-01-17T21:04:28.746Z,77.68
2018-01-17T21:06:56.177Z,76.67
2018-01-17T21:09:23.622Z,78.06
2018-01-17T21:11:51.028Z,76.87
2018-01-17T21:14:18.448Z,76.29
2018-01-17T21:16:45.853Z,76.83
2018-01-17T21:19:13.281Z,76.00
2018-01-17T21:21:40.706Z,76.48
2018-01-17T21:24:08.129Z,76.06
2018-01-17T21:26:35.533Z,75.89
2018-01-17T21:29:03.333Z,76.38
2018-01-17T21:31:30.801Z,76.53
2018-01-17T21:33:58.209Z,77.01
2018-01-17T21:36:25.625Z,76.92
2018-01-17T21:38:53.037Z,77.11
2018-01-17T21:41:20.490Z,77.77
2018-01-17T21:43:53.442Z,76.93
2018-01-17T21:46:20.851Z,76.90
2018-01-17T21:48:48.250Z,76.34
2018-01-17T21:51:15.695Z,77.46
2018-01-17T21:53:43.128Z,76.47
2018-01-17T21:56:10.585Z,76.08
2018-01-17T21:58:38.001Z,76.87
2018-01-17T22:01:05.456Z,77.16
2018-01-17T22:03:32.861Z,76.88
2018-01-17T22:06:00.790Z,76.11
2018-01-17T22:08:28.165Z,75.91
2018-01-17T22:10:55.593Z,76.45
2018-01-17T22:13:23.008Z,75.68
2018-01-17T22:15:50.412Z,76.27
2018-01-17T22:18:17.825Z,75.81
2018-01-17T22:20:45.645Z,76.11
2018-01-17T22:23:13.054Z,76.32
2018-01-17T22:25:40.458Z,76.08
2018-01-17T22:28:07.885Z,75.82
2018-01-17T22:30:35.309Z,76.37
2018-01-17T22:33:02.704Z,76.25
2018-01-17T22:35:30.138Z,76.69
2018-01-17T22:37:57.560Z,76.97
2018-01-17T22:40:24.990Z,76.77
2018-01-17T22:42:52.750Z,76.80
2018-01-17T22:45:20.158Z,76.63
2018-01-17T22:47:47.562Z,77.35
2018-01-17T22:50:15.441Z,76.99
2018-01-17T22:52:42.845Z,77.11
2018-01-17T22:55:10.269Z,76.77
2018-01-17T22:57:37.695Z,76.90
2018-01-17T23:00:05.098Z,77.79
2018-01-17T23:02:32.508Z,77.03
2018-01-17T23:05:00.291Z,78.04
2018-01-17T23:07:27.700Z,77.00
2018-01-17T23:09:55.117Z,77.83
2018-01-17T23:12:22.551Z,77.73
2018-01-17T23:14:49.958Z,76.81
2018-01-17T23:17:17.369Z,77.73
2018-01-17T23:19:45.097Z,77.81
2018-01-17T23:22:12.496Z,78.21
2018-01-17T23:24:39.901Z,78.44
2018-01-17T23:27:07.813Z,78.17
2018-01-17T23:29:35.245Z,78.12
2018-01-17T23:32:02.637Z,78.42
2018-01-17T23:34:30.396Z,78.47
2018-01-17T23:36:57.855Z,78.41
2018-01-17T23:39:25.271Z,79.20
2018-01-17T23:41:52.684Z,79.35
2018-01-17T23:44:20.105Z,79.09
2018-01-17T23:46:47.513Z,79.44
2018-01-17T23:49:14.953Z,79.76
2018-01-17T23:51:42.357Z,80.21
2018-01-17T23:54:09.815Z,79.89
2018-01-17T23:56:37.237Z,80.05
2018-01-17T23:59:04.646Z,80.04
